Time;durP1;ratioP1;P1;durP2;ratioP2;P2;SDS_P1;SDS_P2;PMS_P1;PMS_P2;Temp;Humidity;BMP_temperature;BMP_pressure;BME280_temperature;BME280_humidity;BME280_pressure;Samples;Min_cycle;Max_cycle;Signal;HPM_P1;HPM_P2
2021/10/12 00:01:56;;;;;;;10.03;2.33;;;;;;;;;;5055714;28;20590;-71
2021/10/12 00:05:15;;;;;;;12.90;2.57;;;;;;;;;;5052980;28;20260;-70
2021/10/12 00:08:34;;;;;;;8.80;2.67;;;;;;;;;;5056627;28;20317;-70
2021/10/12 00:11:53;;;;;;;14.33;2.30;;;;;;;;;;5058001;28;20642;-70
2021/10/12 00:15:13;;;;;;;8.73;1.87;;;;;;;;;;5055845;28;20681;-70
2021/10/12 00:18:34;;;;;;;9.77;1.97;;;;;;;;;;5056688;28;20222;-70
2021/10/12 00:21:52;;;;;;;8.93;1.97;;;;;;;;;;5055891;28;20281;-71
2021/10/12 00:25:11;;;;;;;8.40;2.23;;;;;;;;;;5055183;28;20212;-70
2021/10/12 00:28:31;;;;;;;7.67;1.83;;;;;;;;;;5056135;28;20240;-71
2021/10/12 00:31:50;;;;;;;10.07;2.43;;;;;;;;;;5057730;28;20231;-71
2021/10/12 00:35:10;;;;;;;7.57;1.70;;;;;;;;;;5053140;28;20213;-71
2021/10/12 00:38:29;;;;;;;10.53;1.60;;;;;;;;;;5055708;28;20268;-70
2021/10/12 00:41:48;;;;;;;9.40;2.23;;;;;;;;;;5055038;28;20611;-71
2021/10/12 00:45:09;;;;;;;9.43;1.80;;;;;;;;;;5055587;28;20262;-71
2021/10/12 00:48:28;;;;;;;8.10;1.80;;;;;;;;;;5053890;28;20215;-71
2021/10/12 00:51:48;;;;;;;8.77;1.60;;;;;;;;;;5055142;28;20279;-71
2021/10/12 00:55:07;;;;;;;7.10;1.60;;;;;;;;;;5055456;28;20214;-71
2021/10/12 00:58:26;;;;;;;7.03;1.60;;;;;;;;;;5056308;28;20307;-71
2021/10/12 01:01:45;;;;;;;8.07;2.20;;;;;;;;;;5055384;28;21090;-70
2021/10/12 01:05:04;;;;;;;7.67;1.87;;;;;;;;;;5054669;28;20259;-71
2021/10/12 01:08:25;;;;;;;8.90;1.50;;;;;;;;;;5056300;28;20216;-71
2021/10/12 01:11:45;;;;;;;6.27;1.77;;;;;;;;;;5053285;28;20291;-71
2021/10/12 01:15:04;;;;;;;8.53;1.40;;;;;;;;;;5054662;28;20249;-71
2021/10/12 01:18:22;;;;;;;7.57;1.60;;;;;;;;;;5057244;28;20230;-71
2021/10/12 01:21:46;;;;;;;8.30;1.80;;;;;;;;;;5054495;28;20570;-71
2021/10/12 01:25:05;;;;;;;6.73;1.90;;;;;;;;;;5055507;28;20213;-71
2021/10/12 01:28:24;;;;;;;6.93;1.70;;;;;;;;;;5054872;28;20259;-71
2021/10/12 01:31:43;;;;;;;5.93;1.20;;;;;;;;;;5055506;28;20214;-71
2021/10/12 01:35:06;;;;;;;9.57;1.93;;;;;;;;;;5054488;28;20609;-71
2021/10/12 01:38:31;;;;;;;7.90;1.83;;;;;;;;;;5056773;28;20237;-71
2021/10/12 01:41:50;;;;;;;7.70;1.93;;;;;;;;;;5053848;28;20281;-70
2021/10/12 01:45:11;;;;;;;4.23;1.57;;;;;;;;;;5055766;28;20209;-70
2021/10/12 01:48:30;;;;;;;4.50;1.17;;;;;;;;;;5054334;28;20217;-71
2021/10/12 01:51:49;;;;;;;7.10;1.40;;;;;;;;;;5055154;28;20614;-71
2021/10/12 01:54:20;;;;;;;5.43;1.20;;;;;;;;;;5055959;28;20217;-71
2021/10/12 01:57:25;;;;;;;6.83;1.30;;;;;;;;;;5054827;28;20264;-71
2021/10/12 02:00:44;;;;;;;3.67;1.10;;;;;;;;;;5053845;28;20252;-71
2021/10/12 02:04:03;;;;;;;10.07;1.40;;;;;;;;;;5056236;28;20265;-71
2021/10/12 02:07:22;;;;;;;4.27;1.37;;;;;;;;;;5055157;28;20619;-71
2021/10/12 02:10:41;;;;;;;8.07;1.67;;;;;;;;;;5055501;28;20266;-71
2021/10/12 02:13:55;;;;;;;8.27;2.10;;;;;;;;;;5055522;28;20249;-71
2021/10/12 02:17:14;;;;;;;5.57;1.80;;;;;;;;;;5054919;28;20299;-71
2021/10/12 02:20:33;;;;;;;6.17;1.27;;;;;;;;;;5054467;28;20213;-73
2021/10/12 02:23:52;;;;;;;5.80;1.40;;;;;;;;;;5055499;28;20217;-73
2021/10/12 02:27:13;;;;;;;5.97;1.33;;;;;;;;;;5051948;28;20221;-73
2021/10/12 02:30:32;;;;;;;2.70;0.80;;;;;;;;;;5055450;28;20222;-71
2021/10/12 02:33:51;;;;;;;2.27;1.33;;;;;;;;;;5053321;28;20279;-71
2021/10/12 02:37:10;;;;;;;5.83;1.30;;;;;;;;;;5053095;28;20667;-71
2021/10/12 02:40:29;;;;;;;2.77;1.00;;;;;;;;;;5053733;28;20282;-71
2021/10/12 02:43:49;;;;;;;6.70;0.93;;;;;;;;;;5053994;28;20558;-71
2021/10/12 02:47:08;;;;;;;5.30;1.00;;;;;;;;;;5054266;28;20213;-72
2021/10/12 02:50:28;;;;;;;6.07;1.00;;;;;;;;;;5056367;28;20217;-72
2021/10/12 02:53:47;;;;;;;4.73;1.30;;;;;;;;;;5053309;28;20220;-72
2021/10/12 02:57:05;;;;;;;5.23;1.13;;;;;;;;;;5053272;28;20213;-71
2021/10/12 03:00:26;;;;;;;4.60;1.13;;;;;;;;;;5056292;28;20264;-71
2021/10/12 03:03:45;;;;;;;4.70;1.30;;;;;;;;;;5054903;28;20758;-70
2021/10/12 03:07:04;;;;;;;4.00;1.50;;;;;;;;;;5056843;28;20275;-70
2021/10/12 03:10:23;;;;;;;3.93;1.30;;;;;;;;;;5057115;28;20648;-70
2021/10/12 03:13:41;;;;;;;6.90;1.47;;;;;;;;;;5057747;28;20302;-70
2021/10/12 03:17:02;;;;;;;5.20;1.50;;;;;;;;;;5057712;28;21128;-70
2021/10/12 03:20:22;;;;;;;4.97;1.37;;;;;;;;;;5058321;28;20354;-70
2021/10/12 03:23:41;;;;;;;7.70;1.67;;;;;;;;;;5057340;28;20331;-70
2021/10/12 03:27:00;;;;;;;3.33;1.17;;;;;;;;;;5056278;28;20226;-70
2021/10/12 03:30:19;;;;;;;6.33;1.33;;;;;;;;;;5055999;28;21081;-70
2021/10/12 03:33:39;;;;;;;7.03;1.30;;;;;;;;;;5059201;28;20288;-73
2021/10/12 03:36:58;;;;;;;6.63;1.73;;;;;;;;;;5056195;28;20284;-73
2021/10/12 03:40:18;;;;;;;8.23;1.53;;;;;;;;;;5057647;28;20216;-70
2021/10/12 03:43:37;;;;;;;7.67;1.43;;;;;;;;;;5056240;28;20822;-72
2021/10/12 03:46:56;;;;;;;6.33;1.97;;;;;;;;;;5058386;28;21178;-70
2021/10/12 03:50:16;;;;;;;5.90;1.50;;;;;;;;;;5056650;28;20276;-70
2021/10/12 03:53:35;;;;;;;7.07;1.90;;;;;;;;;;5056256;28;20609;-70
2021/10/12 03:56:54;;;;;;;7.13;1.80;;;;;;;;;;5057122;28;20259;-71
2021/10/12 04:00:14;;;;;;;9.37;2.00;;;;;;;;;;5056186;28;20209;-70
2021/10/12 04:03:32;;;;;;;7.50;2.10;;;;;;;;;;5057219;28;20600;-70
2021/10/12 04:06:53;;;;;;;5.97;1.93;;;;;;;;;;5055183;28;20236;-69
2021/10/12 04:10:12;;;;;;;10.33;2.13;;;;;;;;;;5058608;28;20273;-69
2021/10/12 04:13:30;;;;;;;9.37;2.67;;;;;;;;;;5056868;28;20271;-69
2021/10/12 04:16:49;;;;;;;6.73;2.30;;;;;;;;;;5057859;28;20276;-69
2021/10/12 04:20:09;;;;;;;7.33;2.20;;;;;;;;;;5057138;28;20237;-69
2021/10/12 04:23:30;;;;;;;7.60;2.33;;;;;;;;;;5056623;28;20282;-69
2021/10/12 04:26:49;;;;;;;8.20;2.30;;;;;;;;;;5055755;28;20684;-69
2021/10/12 04:30:08;;;;;;;3.63;1.30;;;;;;;;;;5056516;28;20218;-69
2021/10/12 04:33:27;;;;;;;7.28;2.03;;;;;;;;;;5055780;28;21041;-68
2021/10/12 04:36:46;;;;;;;5.67;2.27;;;;;;;;;;5055195;28;20233;-68
2021/10/12 04:40:07;;;;;;;6.17;1.80;;;;;;;;;;5054780;28;20237;-68
2021/10/12 04:43:27;;;;;;;4.77;1.80;;;;;;;;;;5055146;28;20283;-68
2021/10/12 04:46:46;;;;;;;4.23;1.30;;;;;;;;;;5058265;28;20209;-68
2021/10/12 04:50:06;;;;;;;7.17;2.00;;;;;;;;;;5054159;28;20216;-68
2021/10/12 04:53:25;;;;;;;4.57;1.93;;;;;;;;;;5055203;28;20263;-68
2021/10/12 04:56:45;;;;;;;10.63;2.00;;;;;;;;;;5056809;28;20213;-68
2021/10/12 05:00:05;;;;;;;8.37;2.43;;;;;;;;;;5056673;28;20289;-68
2021/10/12 05:03:24;;;;;;;8.40;2.00;;;;;;;;;;5054441;28;20263;-68
2021/10/12 05:06:43;;;;;;;8.00;2.10;;;;;;;;;;5057251;28;20768;-68
2021/10/12 05:10:03;;;;;;;8.07;2.17;;;;;;;;;;5056102;28;20217;-68
2021/10/12 05:13:24;;;;;;;5.43;2.00;;;;;;;;;;5052781;28;20263;-68
2021/10/12 05:16:43;;;;;;;8.10;1.60;;;;;;;;;;5056067;28;20570;-68
2021/10/12 05:20:02;;;;;;;8.13;2.00;;;;;;;;;;5053132;28;20299;-68
2021/10/12 05:23:20;;;;;;;7.30;1.70;;;;;;;;;;5055126;28;20279;-70
2021/10/12 05:26:41;;;;;;;7.70;1.90;;;;;;;;;;5053804;28;20626;-68
2021/10/12 05:30:03;;;;;;;8.00;1.77;;;;;;;;;;5055138;28;20241;-71
2021/10/12 05:33:22;;;;;;;11.10;1.97;;;;;;;;;;5054136;28;20274;-71
2021/10/12 05:36:41;;;;;;;9.20;2.47;;;;;;;;;;5053876;28;20237;-71
2021/10/12 05:40:00;;;;;;;8.40;2.30;;;;;;;;;;5054428;28;20287;-68
2021/10/12 05:43:20;;;;;;;10.43;2.87;;;;;;;;;;5052501;28;20229;-68
2021/10/12 05:46:07;;;;;;;7.10;1.97;;;;;;;;;;5053756;28;21160;-71
2021/10/12 05:49:00;;;;;;;9.33;2.50;;;;;;;;;;5055817;28;20747;-68
2021/10/12 05:52:22;;;;;;;9.93;2.23;;;;;;;;;;5055310;28;20341;-68
2021/10/12 05:55:48;;;;;;;7.83;2.37;;;;;;;;;;5051577;28;20217;-68
2021/10/12 05:59:06;;;;;;;10.23;2.77;;;;;;;;;;5052640;28;20239;-71
2021/10/12 06:02:26;;;;;;;13.50;3.00;;;;;;;;;;5052705;28;20204;-68
2021/10/12 06:05:45;;;;;;;6.97;2.53;;;;;;;;;;5053100;28;20266;-68
2021/10/12 06:09:05;;;;;;;10.07;3.00;;;;;;;;;;5051151;28;20287;-68
2021/10/12 06:11:32;;;;;;;9.17;2.90;;;;;;;;;;5052692;28;20212;-71
2021/10/12 06:14:51;;;;;;;10.33;2.73;;;;;;;;;;5051939;28;20314;-71
2021/10/12 06:18:12;;;;;;;9.50;2.53;;;;;;;;;;5050992;28;21177;-70
2021/10/12 06:21:31;;;;;;;13.90;2.90;;;;;;;;;;5051115;28;20223;-70
2021/10/12 06:24:50;;;;;;;12.93;3.43;;;;;;;;;;5052981;28;20217;-70
2021/10/12 06:28:11;;;;;;;9.27;2.90;;;;;;;;;;5052227;28;20774;-69
2021/10/12 06:31:31;;;;;;;10.50;3.07;;;;;;;;;;5053225;28;20634;-71
2021/10/12 06:34:15;;;;;;;7.27;2.33;;;;;;;;;;5052790;28;20212;-69
2021/10/12 06:37:23;;;;;;;9.27;2.30;;;;;;;;;;5055163;28;20221;-70
2021/10/12 06:40:41;;;;;;;9.20;2.50;;;;;;;;;;5057971;28;20244;-70
2021/10/12 06:44:00;;;;;;;12.73;3.40;;;;;;;;;;5054097;28;20220;-70
2021/10/12 06:47:19;;;;;;;11.93;3.57;;;;;;;;;;5055055;28;20221;-70
2021/10/12 06:50:40;;;;;;;17.63;4.60;;;;;;;;;;5058069;28;20256;-72
2021/10/12 06:53:55;;;;;;;16.23;4.73;;;;;;;;;;5055145;28;20217;-71
2021/10/12 06:57:13;;;;;;;13.93;4.03;;;;;;;;;;5057082;28;20665;-71
2021/10/12 07:00:32;;;;;;;13.47;3.50;;;;;;;;;;5055717;28;20237;-70
2021/10/12 07:03:51;;;;;;;9.57;3.20;;;;;;;;;;5055949;28;20679;-70
2021/10/12 07:07:07;;;;;;;11.67;3.03;;;;;;;;;;5055103;28;20233;-69
2021/10/12 07:10:26;;;;;;;8.87;2.73;;;;;;;;;;5055634;28;20222;-70
2021/10/12 07:13:46;;;;;;;7.90;2.30;;;;;;;;;;5055558;28;20249;-69
2021/10/12 07:17:05;;;;;;;9.13;2.03;;;;;;;;;;5055363;28;20291;-70
2021/10/12 07:20:24;;;;;;;7.87;1.97;;;;;;;;;;5054287;28;20236;-69
2021/10/12 07:23:44;;;;;;;11.73;2.20;;;;;;;;;;5054330;28;20222;-70
2021/10/12 07:27:04;;;;;;;10.93;2.90;;;;;;;;;;5054433;28;20668;-71
2021/10/12 07:30:22;;;;;;;9.27;3.10;;;;;;;;;;5056130;28;20226;-70
2021/10/12 07:32:53;;;;;;;9.60;2.70;;;;;;;;;;5055315;28;20211;-70
2021/10/12 07:35:50;;;;;;;11.33;3.40;;;;;;;;;;5055121;28;20234;-70
2021/10/12 07:39:10;;;;;;;7.53;2.70;;;;;;;;;;5054353;28;20257;-69
2021/10/12 07:41:53;;;;;;;10.17;2.43;;;;;;;;;;5054730;28;20563;-71
2021/10/12 07:44:55;;;;;;;10.70;2.57;;;;;;;;;;5053715;28;20218;-69
2021/10/12 07:47:23;;;;;;;8.37;2.50;;;;;;;;;;5051923;28;20270;-69
2021/10/12 07:50:08;;;;;;;11.57;2.47;;;;;;;;;;5055350;28;20261;-70
2021/10/12 07:53:32;;;;;;;12.77;2.93;;;;;;;;;;5052827;28;20276;-70
2021/10/12 07:56:51;;;;;;;7.70;2.90;;;;;;;;;;5055253;28;20547;-70
2021/10/12 08:00:10;;;;;;;9.67;2.63;;;;;;;;;;5055039;28;20656;-69
2021/10/12 08:02:43;;;;;;;6.47;1.70;;;;;;;;;;5053003;28;20298;-69
2021/10/12 08:05:35;;;;;;;5.33;1.50;;;;;;;;;;5053484;28;20291;-69
2021/10/12 08:08:02;;;;;;;5.40;1.50;;;;;;;;;;5054040;28;20202;-69
2021/10/12 08:11:24;;;;;;;4.83;1.07;;;;;;;;;;5055398;28;20206;-69
2021/10/12 08:14:37;;;;;;;3.53;1.10;;;;;;;;;;5055217;28;20250;-68
2021/10/12 08:17:52;;;;;;;3.30;0.60;;;;;;;;;;5055351;28;20206;-68
2021/10/12 08:21:11;;;;;;;4.00;1.10;;;;;;;;;;5054116;28;20233;-68
2021/10/12 08:23:43;;;;;;;4.27;0.90;;;;;;;;;;5055991;28;20217;-68
2021/10/12 08:26:12;;;;;;;2.17;0.50;;;;;;;;;;5053792;28;20203;-69
2021/10/12 08:29:02;;;;;;;3.17;0.83;;;;;;;;;;5052461;28;20230;-69
2021/10/12 08:32:20;;;;;;;2.50;0.70;;;;;;;;;;5054488;28;20210;-69
2021/10/12 08:35:24;;;;;;;2.23;0.73;;;;;;;;;;5054226;28;20226;-69
2021/10/12 08:38:36;;;;;;;4.87;0.90;;;;;;;;;;5052724;28;20210;-69
2021/10/12 08:42:02;;;;;;;4.20;1.00;;;;;;;;;;5053047;28;21068;-69
2021/10/12 08:45:22;;;;;;;4.53;1.10;;;;;;;;;;5051661;28;21308;-70
2021/10/12 08:48:42;;;;;;;4.70;1.30;;;;;;;;;;5046892;28;20206;-69
2021/10/12 08:52:01;;;;;;;6.57;1.13;;;;;;;;;;5052396;28;20223;-70
2021/10/12 08:55:20;;;;;;;5.97;1.40;;;;;;;;;;5055760;28;20283;-70
2021/10/12 08:57:53;;;;;;;6.07;1.27;;;;;;;;;;5054212;28;20222;-70
2021/10/12 09:00:40;;;;;;;8.17;1.30;;;;;;;;;;5051371;28;20223;-70
2021/10/12 09:03:17;;;;;;;6.93;1.03;;;;;;;;;;5053831;28;20210;-70
2021/10/12 09:06:52;;;;;;;3.03;0.80;;;;;;;;;;5051463;28;20265;-69
2021/10/12 09:10:20;;;;;;;4.90;1.00;;;;;;;;;;5052402;28;20624;-69
2021/10/12 09:13:43;;;;;;;2.13;0.80;;;;;;;;;;5053075;28;20257;-69
2021/10/12 09:17:04;;;;;;;4.70;1.00;;;;;;;;;;5052794;28;20218;-69
2021/10/12 09:20:28;;;;;;;6.33;1.20;;;;;;;;;;5052200;28;20202;-69
2021/10/12 09:23:17;;;;;;;7.70;1.20;;;;;;;;;;5053260;28;20721;-69
2021/10/12 09:26:39;;;;;;;4.70;1.07;;;;;;;;;;5054639;28;20208;-69
2021/10/12 09:30:04;;;;;;;3.10;1.07;;;;;;;;;;5052528;28;20194;-68
2021/10/12 09:33:27;;;;;;;6.50;1.37;;;;;;;;;;5053255;28;20260;-68
2021/10/12 09:36:41;;;;;;;5.57;1.17;;;;;;;;;;5053923;28;20639;-69
2021/10/12 09:39:49;;;;;;;2.47;0.70;;;;;;;;;;5053477;28;20206;-69
2021/10/12 09:43:09;;;;;;;1.43;0.60;;;;;;;;;;5052766;28;20242;-69
2021/10/12 09:45:50;;;;;;;3.10;0.70;;;;;;;;;;5051500;28;20264;-69
2021/10/12 09:48:40;;;;;;;3.60;0.90;;;;;;;;;;5053294;28;20645;-68
2021/10/12 09:51:13;;;;;;;4.87;1.00;;;;;;;;;;5051653;28;20215;-69
2021/10/12 09:53:54;;;;;;;1.73;0.70;;;;;;;;;;5052563;28;20268;-69
2021/10/12 09:56:21;;;;;;;3.63;0.60;;;;;;;;;;5052021;28;20206;-69
2021/10/12 09:58:48;;;;;;;2.83;0.67;;;;;;;;;;5053428;28;20505;-69
2021/10/12 10:01:19;;;;;;;4.07;0.97;;;;;;;;;;5051836;28;20225;-69
2021/10/12 10:03:52;;;;;;;6.17;0.90;;;;;;;;;;5053702;28;20200;-70
2021/10/12 10:06:21;;;;;;;3.63;1.00;;;;;;;;;;5049887;28;20234;-69
2021/10/12 10:08:52;;;;;;;5.83;0.83;;;;;;;;;;5052789;28;20210;-69
2021/10/12 10:11:19;;;;;;;4.03;0.87;;;;;;;;;;5052016;28;20214;-70
2021/10/12 10:13:46;;;;;;;2.83;0.60;;;;;;;;;;5055731;28;20628;-70
2021/10/12 10:16:14;;;;;;;6.97;1.10;;;;;;;;;;5055772;28;20264;-70
2021/10/12 10:18:44;;;;;;;5.63;1.30;;;;;;;;;;5056579;28;20198;-70
2021/10/12 10:21:11;;;;;;;5.17;1.13;;;;;;;;;;5057556;28;20225;-70
2021/10/12 10:23:59;;;;;;;4.70;0.80;;;;;;;;;;5056956;28;20297;-70
2021/10/12 10:26:28;;;;;;;5.10;0.80;;;;;;;;;;5055541;28;20210;-70
2021/10/12 10:28:56;;;;;;;10.10;1.27;;;;;;;;;;5056522;28;20206;-70
2021/10/12 10:31:39;;;;;;;3.77;0.73;;;;;;;;;;5057169;28;20640;-70
2021/10/12 10:35:14;;;;;;;4.37;1.10;;;;;;;;;;5056678;28;20222;-70
2021/10/12 10:37:41;;;;;;;3.00;0.83;;;;;;;;;;5056565;28;20248;-70
2021/10/12 10:40:25;;;;;;;8.30;1.03;;;;;;;;;;5056146;28;20682;-70
2021/10/12 10:42:57;;;;;;;4.17;1.00;;;;;;;;;;5057150;28;20315;-69
2021/10/12 10:45:45;;;;;;;4.00;1.00;;;;;;;;;;5056272;28;20218;-70
2021/10/12 10:48:13;;;;;;;3.83;1.03;;;;;;;;;;5056742;28;20722;-70
2021/10/12 10:50:41;;;;;;;3.20;0.97;;;;;;;;;;5056305;28;20605;-70
2021/10/12 10:53:10;;;;;;;7.80;0.77;;;;;;;;;;5056056;28;20263;-70
2021/10/12 10:55:38;;;;;;;3.60;1.10;;;;;;;;;;5055864;28;20210;-71
2021/10/12 10:58:08;;;;;;;4.40;0.70;;;;;;;;;;5055967;28;20226;-70
2021/10/12 11:00:38;;;;;;;5.23;0.83;;;;;;;;;;5056311;28;20202;-70
2021/10/12 11:03:06;;;;;;;4.40;0.80;;;;;;;;;;5056855;28;20220;-70
2021/10/12 11:05:48;;;;;;;7.53;1.00;;;;;;;;;;5055865;28;20237;-70
2021/10/12 11:08:18;;;;;;;3.40;1.23;;;;;;;;;;5052945;28;20213;-73
2021/10/12 11:10:46;;;;;;;3.77;0.90;;;;;;;;;;5054905;28;20711;-70
2021/10/12 11:13:13;;;;;;;3.63;0.80;;;;;;;;;;5054295;28;20234;-70
2021/10/12 11:15:50;;;;;;;4.77;1.10;;;;;;;;;;5056868;28;20217;-70
2021/10/12 11:18:16;;;;;;;6.10;1.10;;;;;;;;;;5054694;28;20209;-70
2021/10/12 11:20:44;;;;;;;6.03;1.43;;;;;;;;;;5052634;28;20226;-70
2021/10/12 11:23:14;;;;;;;8.33;1.47;;;;;;;;;;5055542;28;20198;-70
2021/10/12 11:25:41;;;;;;;8.00;1.30;;;;;;;;;;5053921;28;20630;-71
2021/10/12 11:28:09;;;;;;;4.43;1.00;;;;;;;;;;5055465;28;20570;-71
2021/10/12 11:30:36;;;;;;;8.27;2.00;;;;;;;;;;5054858;28;20223;-71
2021/10/12 11:33:03;;;;;;;7.30;1.03;;;;;;;;;;5054465;28;20301;-70
2021/10/12 11:35:34;;;;;;;3.10;1.37;;;;;;;;;;5055403;28;20218;-70
2021/10/12 11:38:01;;;;;;;7.00;1.50;;;;;;;;;;5053818;28;20221;-71
2021/10/12 11:40:29;;;;;;;6.53;1.07;;;;;;;;;;5055110;28;20214;-70
2021/10/12 11:42:59;;;;;;;4.00;1.03;;;;;;;;;;5053112;28;20281;-71
2021/10/12 11:45:26;;;;;;;4.17;1.40;;;;;;;;;;5053769;28;20272;-70
2021/10/12 11:47:54;;;;;;;7.27;1.17;;;;;;;;;;5053149;28;20275;-70
2021/10/12 11:50:21;;;;;;;4.17;0.80;;;;;;;;;;5054873;28;20355;-70
2021/10/12 11:52:50;;;;;;;8.97;1.20;;;;;;;;;;5053850;28;20227;-70
2021/10/12 11:55:17;;;;;;;5.50;0.90;;;;;;;;;;5054202;28;20210;-70
2021/10/12 11:57:46;;;;;;;5.53;0.80;;;;;;;;;;5054786;28;20297;-70
2021/10/12 12:00:14;;;;;;;4.90;1.23;;;;;;;;;;5055623;28;20246;-71
2021/10/12 12:02:41;;;;;;;6.00;1.10;;;;;;;;;;5053657;28;20254;-70
2021/10/12 12:05:10;;;;;;;3.80;1.00;;;;;;;;;;5052559;28;20690;-71
2021/10/12 12:07:40;;;;;;;4.80;1.40;;;;;;;;;;5055782;28;20206;-70
2021/10/12 12:10:09;;;;;;;5.40;1.00;;;;;;;;;;5053689;28;20206;-70
2021/10/12 12:12:36;;;;;;;4.60;1.10;;;;;;;;;;5054348;28;20750;-70
2021/10/12 12:15:06;;;;;;;3.90;0.87;;;;;;;;;;5055261;28;20629;-70
2021/10/12 12:17:36;;;;;;;6.03;1.10;;;;;;;;;;5054074;28;20267;-70
2021/10/12 12:20:08;;;;;;;4.60;1.07;;;;;;;;;;5053459;28;20281;-70
2021/10/12 12:22:35;;;;;;;1.53;0.90;;;;;;;;;;5052424;28;20230;-70
2021/10/12 12:25:03;;;;;;;3.80;0.97;;;;;;;;;;5054288;28;20215;-70
2021/10/12 12:27:34;;;;;;;3.60;1.30;;;;;;;;;;5054038;28;20295;-70
2021/10/12 12:30:04;;;;;;;3.97;1.13;;;;;;;;;;5053231;28;20236;-71
2021/10/12 12:32:32;;;;;;;3.80;1.20;;;;;;;;;;5052596;28;20222;-70
2021/10/12 12:35:00;;;;;;;3.97;0.93;;;;;;;;;;5053848;28;20226;-70
2021/10/12 12:37:28;;;;;;;4.33;0.97;;;;;;;;;;5051568;28;20215;-70
2021/10/12 12:39:55;;;;;;;6.87;1.17;;;;;;;;;;5052090;28;20990;-70
2021/10/12 12:42:34;;;;;;;7.47;1.10;;;;;;;;;;5053491;28;20281;-70
2021/10/12 12:45:13;;;;;;;4.67;0.77;;;;;;;;;;5054300;28;20265;-70
2021/10/12 12:47:55;;;;;;;3.57;0.90;;;;;;;;;;5053860;28;20206;-70
2021/10/12 12:50:25;;;;;;;9.50;1.20;;;;;;;;;;5052726;28;20543;-70
2021/10/12 12:52:52;;;;;;;4.40;1.20;;;;;;;;;;5052457;28;20198;-72
2021/10/12 12:55:35;;;;;;;9.00;1.43;;;;;;;;;;5053225;28;20358;-70
2021/10/12 12:58:02;;;;;;;6.03;1.53;;;;;;;;;;5051358;28;20238;-72
2021/10/12 13:00:28;;;;;;;3.83;0.93;;;;;;;;;;5053865;28;20631;-70
2021/10/12 13:02:57;;;;;;;8.93;2.03;;;;;;;;;;5053257;28;20226;-70
2021/10/12 13:05:26;;;;;;;9.33;1.73;;;;;;;;;;5052579;28;20226;-70
2021/10/12 13:07:53;;;;;;;6.43;1.43;;;;;;;;;;5052916;28;20218;-70
2021/10/12 13:10:21;;;;;;;4.17;1.30;;;;;;;;;;5053560;28;20209;-70
2021/10/12 13:12:49;;;;;;;3.90;1.20;;;;;;;;;;5052063;28;20234;-69
2021/10/12 13:15:15;;;;;;;8.10;1.63;;;;;;;;;;5053261;28;20629;-70
2021/10/12 13:17:42;;;;;;;6.13;1.40;;;;;;;;;;5052446;28;20255;-70
2021/10/12 13:20:12;;;;;;;5.97;1.13;;;;;;;;;;5053517;28;20692;-70
2021/10/12 13:22:39;;;;;;;5.47;1.80;;;;;;;;;;5053412;28;20295;-70
2021/10/12 13:25:07;;;;;;;8.37;1.33;;;;;;;;;;5053579;28;20206;-70
2021/10/12 13:27:33;;;;;;;3.87;1.30;;;;;;;;;;5052333;28;20231;-71
2021/10/12 13:29:59;;;;;;;5.87;1.33;;;;;;;;;;5053558;28;20210;-71
2021/10/12 13:32:26;;;;;;;11.83;1.53;;;;;;;;;;5053003;28;21401;-70
2021/10/12 13:34:53;;;;;;;6.10;1.37;;;;;;;;;;5052636;28;20226;-70
2021/10/12 13:37:22;;;;;;;6.00;1.53;;;;;;;;;;5051508;28;20229;-70
2021/10/12 13:39:48;;;;;;;5.30;1.33;;;;;;;;;;5052107;28;20268;-70
2021/10/12 13:42:15;;;;;;;8.30;1.77;;;;;;;;;;5051723;28;20243;-70
2021/10/12 13:44:42;;;;;;;7.00;1.00;;;;;;;;;;5050712;28;20214;-70
2021/10/12 13:47:09;;;;;;;5.43;1.17;;;;;;;;;;5052536;28;20828;-70
2021/10/12 13:49:36;;;;;;;6.67;1.20;;;;;;;;;;5052022;28;20243;-70
2021/10/12 13:52:04;;;;;;;5.53;1.83;;;;;;;;;;5053700;28;20206;-71
2021/10/12 13:54:33;;;;;;;2.73;1.30;;;;;;;;;;5051405;28;20210;-70
2021/10/12 13:57:00;;;;;;;6.73;1.50;;;;;;;;;;5050561;28;20226;-70
2021/10/12 13:59:27;;;;;;;5.57;2.07;;;;;;;;;;5053092;28;20710;-70
2021/10/12 14:01:54;;;;;;;7.23;1.43;;;;;;;;;;5052137;28;20313;-70
2021/10/12 14:04:20;;;;;;;6.03;1.63;;;;;;;;;;5053802;28;20615;-70
2021/10/12 14:06:47;;;;;;;5.03;1.50;;;;;;;;;;5053058;28;20368;-70
2021/10/12 14:09:14;;;;;;;6.83;1.47;;;;;;;;;;5051778;28;20274;-70
2021/10/12 14:11:43;;;;;;;5.43;1.40;;;;;;;;;;5052525;28;20678;-71
2021/10/12 14:14:10;;;;;;;4.43;1.10;;;;;;;;;;5051885;28;20234;-71
2021/10/12 14:16:37;;;;;;;6.10;1.67;;;;;;;;;;5052818;28;20650;-71
2021/10/12 14:19:04;;;;;;;8.13;1.60;;;;;;;;;;5051729;28;20212;-71
2021/10/12 14:21:32;;;;;;;5.17;1.33;;;;;;;;;;5052117;28;20229;-71
2021/10/12 14:23:58;;;;;;;5.63;1.03;;;;;;;;;;5050811;28;20297;-71
2021/10/12 14:26:24;;;;;;;5.93;0.90;;;;;;;;;;5050283;28;20222;-71
2021/10/12 14:28:52;;;;;;;4.63;0.97;;;;;;;;;;5050623;28;20203;-71
2021/10/12 14:31:19;;;;;;;6.20;1.40;;;;;;;;;;5051413;28;20282;-71
2021/10/12 14:33:45;;;;;;;4.10;1.03;;;;;;;;;;5053005;28;20506;-71
2021/10/12 14:36:12;;;;;;;4.67;1.30;;;;;;;;;;5050052;28;20233;-73
2021/10/12 14:38:38;;;;;;;6.17;1.13;;;;;;;;;;5050574;28;21135;-71
2021/10/12 14:41:06;;;;;;;4.83;1.07;;;;;;;;;;5051493;28;20261;-70
2021/10/12 14:43:32;;;;;;;6.07;1.83;;;;;;;;;;5052465;28;20228;-71
2021/10/12 14:46:00;;;;;;;6.17;1.20;;;;;;;;;;5052062;28;20285;-70
2021/10/12 14:48:27;;;;;;;5.00;1.27;;;;;;;;;;5052434;28;20206;-70
2021/10/12 14:50:53;;;;;;;5.03;1.00;;;;;;;;;;5050532;28;20232;-70
2021/10/12 14:53:20;;;;;;;5.80;1.30;;;;;;;;;;5050012;28;20305;-70
2021/10/12 14:55:46;;;;;;;5.73;1.37;;;;;;;;;;5053165;28;20618;-70
2021/10/12 14:58:13;;;;;;;4.93;1.10;;;;;;;;;;5051122;28;20261;-70
2021/10/12 15:00:39;;;;;;;5.87;1.70;;;;;;;;;;5056825;28;20637;-70
2021/10/12 15:03:07;;;;;;;5.13;1.50;;;;;;;;;;5054553;28;20229;-70
2021/10/12 15:05:34;;;;;;;6.53;1.50;;;;;;;;;;5054880;28;20257;-71
2021/10/12 15:08:01;;;;;;;6.17;1.10;;;;;;;;;;5055820;28;20271;-71
2021/10/12 15:10:27;;;;;;;6.73;1.40;;;;;;;;;;5055892;28;20968;-70
2021/10/12 15:12:54;;;;;;;4.93;1.17;;;;;;;;;;5056594;28;20344;-71
2021/10/12 15:15:20;;;;;;;3.77;1.40;;;;;;;;;;5055643;28;20264;-70
2021/10/12 15:17:47;;;;;;;4.20;1.33;;;;;;;;;;5054320;28;20209;-70
2021/10/12 15:20:15;;;;;;;5.57;1.43;;;;;;;;;;5053618;28;20218;-70
2021/10/12 15:22:43;;;;;;;6.93;1.33;;;;;;;;;;5055555;28;20693;-70
2021/10/12 15:25:11;;;;;;;4.90;1.60;;;;;;;;;;5055515;28;20215;-70
2021/10/12 15:27:42;;;;;;;6.67;1.50;;;;;;;;;;5056592;28;20246;-72
2021/10/12 15:30:09;;;;;;;5.33;1.47;;;;;;;;;;5056475;28;20210;-72
2021/10/12 15:32:36;;;;;;;11.80;2.00;;;;;;;;;;5054188;28;20210;-72
2021/10/12 15:35:03;;;;;;;5.17;1.20;;;;;;;;;;5054698;28;20280;-72
2021/10/12 15:37:31;;;;;;;4.90;1.27;;;;;;;;;;5055040;28;20211;-72
2021/10/12 15:39:58;;;;;;;5.00;1.43;;;;;;;;;;5053634;28;20218;-72
2021/10/12 15:42:24;;;;;;;5.33;1.53;;;;;;;;;;5053758;28;20242;-70
2021/10/12 15:44:51;;;;;;;11.20;1.90;;;;;;;;;;5052435;28;20265;-70
2021/10/12 15:47:19;;;;;;;6.07;1.23;;;;;;;;;;5053682;28;20217;-73
2021/10/12 15:49:46;;;;;;;5.07;1.23;;;;;;;;;;5055709;28;20333;-70
2021/10/12 15:52:14;;;;;;;4.00;1.43;;;;;;;;;;5054815;28;20291;-70
2021/10/12 15:54:44;;;;;;;4.50;1.10;;;;;;;;;;5053695;28;20658;-70
2021/10/12 15:57:12;;;;;;;6.23;1.33;;;;;;;;;;5054789;28;20261;-70
2021/10/12 15:59:38;;;;;;;7.60;1.60;;;;;;;;;;5056949;28;20214;-70
2021/10/12 16:02:05;;;;;;;4.40;1.20;;;;;;;;;;5054447;28;20206;-73
2021/10/12 16:04:32;;;;;;;4.43;1.20;;;;;;;;;;5053044;28;20310;-70
2021/10/12 16:06:58;;;;;;;7.33;1.17;;;;;;;;;;5054262;28;20212;-70
2021/10/12 16:09:25;;;;;;;4.03;1.03;;;;;;;;;;5052861;28;20210;-71
2021/10/12 16:11:52;;;;;;;5.83;1.10;;;;;;;;;;5053892;28;21035;-70
2021/10/12 16:14:20;;;;;;;4.50;1.30;;;;;;;;;;5033574;28;20215;-70
2021/10/12 16:17:08;;;;;;;5.13;1.43;;;;;;;;;;5035685;28;20215;-71
2021/10/12 16:22:30;;;;;;;4.27;1.20;;;;;;;;;;4970583;28;20228;-70
2021/10/12 16:24:56;;;;;;;5.07;1.03;;;;;;;;;;5019997;28;20219;-70
2021/10/12 16:27:26;;;;;;;5.23;1.43;;;;;;;;;;5032875;28;20291;-70
2021/10/12 16:29:52;;;;;;;4.83;1.20;;;;;;;;;;5033956;28;20352;-71
2021/10/12 16:32:18;;;;;;;7.23;1.40;;;;;;;;;;5032194;28;20221;-71
2021/10/12 16:34:47;;;;;;;6.20;1.17;;;;;;;;;;5035660;28;20295;-71
2021/10/12 16:37:13;;;;;;;7.73;1.17;;;;;;;;;;5034491;28;20243;-71
2021/10/12 16:39:44;;;;;;;8.20;1.63;;;;;;;;;;5035418;28;20233;-71
2021/10/12 16:42:11;;;;;;;6.77;1.40;;;;;;;;;;5033332;28;20645;-71
2021/10/12 16:44:38;;;;;;;7.13;1.50;;;;;;;;;;5035027;28;20268;-72
2021/10/12 16:47:05;;;;;;;7.13;1.40;;;;;;;;;;5033841;28;20268;-71
2021/10/12 16:49:33;;;;;;;9.30;1.10;;;;;;;;;;5036222;28;20222;-72
2021/10/12 16:52:00;;;;;;;5.87;1.37;;;;;;;;;;5032572;28;20210;-72
2021/10/12 16:54:27;;;;;;;4.93;1.63;;;;;;;;;;5034445;28;20219;-71
2021/10/12 16:56:55;;;;;;;9.07;1.80;;;;;;;;;;5034143;28;20281;-72
2021/10/12 16:59:23;;;;;;;8.17;1.43;;;;;;;;;;5034759;28;20231;-71
2021/10/12 17:01:54;;;;;;;6.23;0.97;;;;;;;;;;5033031;28;20216;-71
2021/10/12 17:04:21;;;;;;;4.13;0.90;;;;;;;;;;5032906;28;20214;-71
2021/10/12 17:06:49;;;;;;;9.67;1.80;;;;;;;;;;5033213;28;20237;-72
2021/10/12 17:09:20;;;;;;;4.67;1.20;;;;;;;;;;5033248;28;20331;-71
2021/10/12 17:11:48;;;;;;;5.90;1.40;;;;;;;;;;5033969;28;20239;-71